sensor_id;sensor_type;location;lat;lon;timestamp;temperature;humidity
76967;DHT22;65904;52.278;20.972;2023-10-13T00:02:13;21.10;99.90
76967;DHT22;65904;52.278;20.972;2023-10-13T00:05:01;21.10;99.90
76967;DHT22;65904;52.278;20.972;2023-10-13T00:07:48;21.10;99.90
76967;DHT22;65904;52.278;20.972;2023-10-13T00:10:34;21.10;99.90
76967;DHT22;65904;52.278;20.972;2023-10-13T00:13:21;21.00;99.90
76967;DHT22;65904;52.278;20.972;2023-10-13T00:16:07;21.10;99.90
76967;DHT22;65904;52.278;20.972;2023-10-13T00:18:54;21.00;99.90
76967;DHT22;65904;52.278;20.972;2023-10-13T00:21:43;21.00;99.90
76967;DHT22;65904;52.278;20.972;2023-10-13T00:24:29;21.10;99.90
76967;DHT22;65904;52.278;20.972;2023-10-13T00:27:24;21.00;99.90
76967;DHT22;65904;52.278;20.972;2023-10-13T00:30:13;21.00;99.90
76967;DHT22;65904;52.278;20.972;2023-10-13T00:33:07;21.00;99.90
76967;DHT22;65904;52.278;20.972;2023-10-13T00:35:54;21.00;99.90
76967;DHT22;65904;52.278;20.972;2023-10-13T00:38:44;21.00;99.90
76967;DHT22;65904;52.278;20.972;2023-10-13T00:41:33;21.00;99.90
76967;DHT22;65904;52.278;20.972;2023-10-13T00:44:36;21.00;99.90
76967;DHT22;65904;52.278;20.972;2023-10-13T00:47:27;21.00;99.90
76967;DHT22;65904;52.278;20.972;2023-10-13T00:50:23;21.00;99.90
76967;DHT22;65904;52.278;20.972;2023-10-13T00:53:10;20.90;99.90
76967;DHT22;65904;52.278;20.972;2023-10-13T00:55:56;21.00;99.90
76967;DHT22;65904;52.278;20.972;2023-10-13T00:58:42;21.00;99.90
76967;DHT22;65904;52.278;20.972;2023-10-13T01:01:27;21.00;99.90
76967;DHT22;65904;52.278;20.972;2023-10-13T01:04:17;20.90;99.90
76967;DHT22;65904;52.278;20.972;2023-10-13T01:07:04;21.00;99.90
76967;DHT22;65904;52.278;20.972;2023-10-13T01:09:52;20.90;99.90
76967;DHT22;65904;52.278;20.972;2023-10-13T01:12:39;20.90;99.90
76967;DHT22;65904;52.278;20.972;2023-10-13T01:15:27;20.90;99.90
76967;DHT22;65904;52.278;20.972;2023-10-13T01:18:15;20.90;99.90
76967;DHT22;65904;52.278;20.972;2023-10-13T01:21:04;20.90;99.90
76967;DHT22;65904;52.278;20.972;2023-10-13T01:23:54;20.90;99.90
76967;DHT22;65904;52.278;20.972;2023-10-13T01:26:38;20.90;99.90
76967;DHT22;65904;52.278;20.972;2023-10-13T01:29:26;20.90;99.90
76967;DHT22;65904;52.278;20.972;2023-10-13T01:32:14;20.90;99.90
76967;DHT22;65904;52.278;20.972;2023-10-13T01:35:00;20.90;99.90
76967;DHT22;65904;52.278;20.972;2023-10-13T01:37:50;20.90;99.90
76967;DHT22;65904;52.278;20.972;2023-10-13T01:40:38;20.80;99.90
76967;DHT22;65904;52.278;20.972;2023-10-13T01:43:23;20.80;99.90
76967;DHT22;65904;52.278;20.972;2023-10-13T01:46:10;20.90;99.90
76967;DHT22;65904;52.278;20.972;2023-10-13T01:48:58;20.90;99.90
76967;DHT22;65904;52.278;20.972;2023-10-13T01:51:43;20.80;99.90
76967;DHT22;65904;52.278;20.972;2023-10-13T01:54:32;20.80;99.90
76967;DHT22;65904;52.278;20.972;2023-10-13T01:57:19;20.80;99.90
76967;DHT22;65904;52.278;20.972;2023-10-13T02:00:10;20.90;99.90
76967;DHT22;65904;52.278;20.972;2023-10-13T02:03:04;20.90;99.90
76967;DHT22;65904;52.278;20.972;2023-10-13T02:05:51;20.80;99.90
76967;DHT22;65904;52.278;20.972;2023-10-13T02:08:42;20.80;99.90
76967;DHT22;65904;52.278;20.972;2023-10-13T02:11:30;20.80;99.90
76967;DHT22;65904;52.278;20.972;2023-10-13T02:14:17;20.80;99.90
76967;DHT22;65904;52.278;20.972;2023-10-13T02:17:07;20.80;99.90
76967;DHT22;65904;52.278;20.972;2023-10-13T02:19:57;20.80;99.90
76967;DHT22;65904;52.278;20.972;2023-10-13T02:22:43;20.80;99.90
76967;DHT22;65904;52.278;20.972;2023-10-13T02:25:35;20.80;99.90
76967;DHT22;65904;52.278;20.972;2023-10-13T02:28:27;20.80;99.90
76967;DHT22;65904;52.278;20.972;2023-10-13T02:31:19;20.80;99.90
76967;DHT22;65904;52.278;20.972;2023-10-13T02:34:08;20.80;99.90
76967;DHT22;65904;52.278;20.972;2023-10-13T02:36:57;20.70;99.90
76967;DHT22;65904;52.278;20.972;2023-10-13T02:39:43;20.70;99.90
76967;DHT22;65904;52.278;20.972;2023-10-13T02:42:28;20.70;99.90
76967;DHT22;65904;52.278;20.972;2023-10-13T02:45:14;20.70;99.90
76967;DHT22;65904;52.278;20.972;2023-10-13T02:48:04;20.70;99.90
76967;DHT22;65904;52.278;20.972;2023-10-13T02:50:58;20.70;99.90
76967;DHT22;65904;52.278;20.972;2023-10-13T02:53:50;20.70;99.90
76967;DHT22;65904;52.278;20.972;2023-10-13T02:56:37;20.70;99.90
76967;DHT22;65904;52.278;20.972;2023-10-13T02:59:22;20.70;99.90
76967;DHT22;65904;52.278;20.972;2023-10-13T03:02:18;20.70;99.90
76967;DHT22;65904;52.278;20.972;2023-10-13T03:05:10;20.70;99.90
76967;DHT22;65904;52.278;20.972;2023-10-13T03:07:58;20.70;99.90
76967;DHT22;65904;52.278;20.972;2023-10-13T03:10:44;20.70;99.90
76967;DHT22;65904;52.278;20.972;2023-10-13T03:13:33;20.70;99.90
76967;DHT22;65904;52.278;20.972;2023-10-13T03:16:18;20.70;99.90
76967;DHT22;65904;52.278;20.972;2023-10-13T03:19:04;20.70;99.90
76967;DHT22;65904;52.278;20.972;2023-10-13T03:21:56;20.70;99.90
76967;DHT22;65904;52.278;20.972;2023-10-13T03:24:50;20.60;99.90
76967;DHT22;65904;52.278;20.972;2023-10-13T03:27:38;20.60;99.90
76967;DHT22;65904;52.278;20.972;2023-10-13T03:30:27;20.60;99.90
76967;DHT22;65904;52.278;20.972;2023-10-13T03:33:19;20.60;99.90
76967;DHT22;65904;52.278;20.972;2023-10-13T03:36:11;20.60;99.90
76967;DHT22;65904;52.278;20.972;2023-10-13T03:39:19;20.60;99.90
76967;DHT22;65904;52.278;20.972;2023-10-13T03:42:07;20.60;99.90
76967;DHT22;65904;52.278;20.972;2023-10-13T03:44:56;20.60;99.90
76967;DHT22;65904;52.278;20.972;2023-10-13T03:47:42;20.60;99.90
76967;DHT22;65904;52.278;20.972;2023-10-13T03:50:31;20.60;99.90
76967;DHT22;65904;52.278;20.972;2023-10-13T03:53:17;20.60;99.90
76967;DHT22;65904;52.278;20.972;2023-10-13T03:56:06;20.60;99.90
76967;DHT22;65904;52.278;20.972;2023-10-13T03:58:57;20.60;99.90
76967;DHT22;65904;52.278;20.972;2023-10-13T04:01:48;20.60;99.90
76967;DHT22;65904;52.278;20.972;2023-10-13T04:04:42;20.60;99.90
76967;DHT22;65904;52.278;20.972;2023-10-13T04:07:33;20.60;99.90
76967;DHT22;65904;52.278;20.972;2023-10-13T04:10:45;20.60;99.90
76967;DHT22;65904;52.278;20.972;2023-10-13T04:13:53;20.60;99.90
76967;DHT22;65904;52.278;20.972;2023-10-13T04:16:55;20.70;99.90
76967;DHT22;65904;52.278;20.972;2023-10-13T04:19:43;19.30;96.30
76967;DHT22;65904;52.278;20.972;2023-10-13T04:22:43;17.60;99.90
76967;DHT22;65904;52.278;20.972;2023-10-13T04:25:47;18.30;99.90
76967;DHT22;65904;52.278;20.972;2023-10-13T04:29:07;19.00;99.90
76967;DHT22;65904;52.278;20.972;2023-10-13T04:31:56;19.50;99.90
76967;DHT22;65904;52.278;20.972;2023-10-13T04:34:45;19.80;99.90
76967;DHT22;65904;52.278;20.972;2023-10-13T04:37:30;20.10;99.90
76967;DHT22;65904;52.278;20.972;2023-10-13T04:40:19;19.50;99.90
76967;DHT22;65904;52.278;20.972;2023-10-13T04:43:09;18.30;99.90
76967;DHT22;65904;52.278;20.972;2023-10-13T04:46:19;18.80;99.90
76967;DHT22;65904;52.278;20.972;2023-10-13T04:49:20;19.40;99.90
76967;DHT22;65904;52.278;20.972;2023-10-13T04:52:13;19.80;99.90
76967;DHT22;65904;52.278;20.972;2023-10-13T04:55:11;20.10;99.90
76967;DHT22;65904;52.278;20.972;2023-10-13T04:58:21;20.30;99.90
76967;DHT22;65904;52.278;20.972;2023-10-13T05:01:32;20.50;99.90
76967;DHT22;65904;52.278;20.972;2023-10-13T05:04:36;20.60;99.90
76967;DHT22;65904;52.278;20.972;2023-10-13T05:07:45;20.70;99.90
76967;DHT22;65904;52.278;20.972;2023-10-13T05:10:49;20.80;99.90
76967;DHT22;65904;52.278;20.972;2023-10-13T05:13:52;20.80;99.50
76967;DHT22;65904;52.278;20.972;2023-10-13T05:16:57;20.90;99.10
76967;DHT22;65904;52.278;20.972;2023-10-13T05:20:00;20.90;99.10
76967;DHT22;65904;52.278;20.972;2023-10-13T05:23:03;21.00;99.30
76967;DHT22;65904;52.278;20.972;2023-10-13T05:26:07;21.00;98.80
76967;DHT22;65904;52.278;20.972;2023-10-13T05:29:11;21.00;99.00
76967;DHT22;65904;52.278;20.972;2023-10-13T05:32:16;19.90;94.70
76967;DHT22;65904;52.278;20.972;2023-10-13T05:35:20;19.20;99.90
76967;DHT22;65904;52.278;20.972;2023-10-13T05:38:24;19.60;99.90
76967;DHT22;65904;52.278;20.972;2023-10-13T05:41:28;19.90;99.90
76967;DHT22;65904;52.278;20.972;2023-10-13T05:44:32;20.10;99.90
76967;DHT22;65904;52.278;20.972;2023-10-13T05:47:33;20.20;99.90
76967;DHT22;65904;52.278;20.972;2023-10-13T05:50:31;20.30;99.90
76967;DHT22;65904;52.278;20.972;2023-10-13T05:53:56;20.40;99.90
76967;DHT22;65904;52.278;20.972;2023-10-13T05:57:00;20.50;99.90
76967;DHT22;65904;52.278;20.972;2023-10-13T06:00:04;20.60;99.90
76967;DHT22;65904;52.278;20.972;2023-10-13T06:03:09;20.60;99.70
76967;DHT22;65904;52.278;20.972;2023-10-13T06:06:13;20.30;95.20
76967;DHT22;65904;52.278;20.972;2023-10-13T06:09:16;19.00;99.90
76967;DHT22;65904;52.278;20.972;2023-10-13T06:12:20;19.50;99.90
76967;DHT22;65904;52.278;20.972;2023-10-13T06:15:24;19.80;99.90
76967;DHT22;65904;52.278;20.972;2023-10-13T06:18:28;20.00;99.90
76967;DHT22;65904;52.278;20.972;2023-10-13T06:21:32;20.30;99.90
76967;DHT22;65904;52.278;20.972;2023-10-13T06:24:36;20.40;99.90
76967;DHT22;65904;52.278;20.972;2023-10-13T06:27:40;20.50;99.90
76967;DHT22;65904;52.278;20.972;2023-10-13T06:30:53;20.50;99.90
76967;DHT22;65904;52.278;20.972;2023-10-13T06:33:42;20.50;96.60
76967;DHT22;65904;52.278;20.972;2023-10-13T06:36:30;19.40;99.90
76967;DHT22;65904;52.278;20.972;2023-10-13T06:39:18;19.50;99.90
76967;DHT22;65904;52.278;20.972;2023-10-13T06:42:19;19.80;99.90
76967;DHT22;65904;52.278;20.972;2023-10-13T06:45:07;20.10;99.90
76967;DHT22;65904;52.278;20.972;2023-10-13T06:47:53;20.30;99.90
76967;DHT22;65904;52.278;20.972;2023-10-13T06:50:47;20.50;99.90
76967;DHT22;65904;52.278;20.972;2023-10-13T06:53:34;20.60;99.90
76967;DHT22;65904;52.278;20.972;2023-10-13T06:56:22;20.70;99.90
76967;DHT22;65904;52.278;20.972;2023-10-13T06:59:11;19.70;99.90
76967;DHT22;65904;52.278;20.972;2023-10-13T07:01:58;19.80;99.90
76967;DHT22;65904;52.278;20.972;2023-10-13T07:04:50;20.20;99.90
76967;DHT22;65904;52.278;20.972;2023-10-13T07:07:43;20.40;99.90
76967;DHT22;65904;52.278;20.972;2023-10-13T07:10:30;20.60;99.90
76967;DHT22;65904;52.278;20.972;2023-10-13T07:13:20;20.80;99.90
76967;DHT22;65904;52.278;20.972;2023-10-13T07:16:06;20.80;99.50
76967;DHT22;65904;52.278;20.972;2023-10-13T07:18:58;21.00;99.00
76967;DHT22;65904;52.278;20.972;2023-10-13T07:21:49;21.10;99.00
76967;DHT22;65904;52.278;20.972;2023-10-13T07:24:44;21.10;98.60
76967;DHT22;65904;52.278;20.972;2023-10-13T07:27:33;21.20;98.30
76967;DHT22;65904;52.278;20.972;2023-10-13T07:30:21;21.20;98.00
76967;DHT22;65904;52.278;20.972;2023-10-13T07:33:11;21.20;97.70
76967;DHT22;65904;52.278;20.972;2023-10-13T07:35:59;21.20;97.70
76967;DHT22;65904;52.278;20.972;2023-10-13T07:38:46;21.30;97.80
76967;DHT22;65904;52.278;20.972;2023-10-13T07:41:47;20.50;96.20
76967;DHT22;65904;52.278;20.972;2023-10-13T07:44:36;20.30;99.90
76967;DHT22;65904;52.278;20.972;2023-10-13T07:47:30;20.60;99.90
76967;DHT22;65904;52.278;20.972;2023-10-13T07:50:18;20.80;99.70
76967;DHT22;65904;52.278;20.972;2023-10-13T07:53:10;21.00;99.30
76967;DHT22;65904;52.278;20.972;2023-10-13T07:56:07;20.70;93.30
76967;DHT22;65904;52.278;20.972;2023-10-13T07:58:57;19.90;99.90
76967;DHT22;65904;52.278;20.972;2023-10-13T08:01:46;20.30;99.90
76967;DHT22;65904;52.278;20.972;2023-10-13T08:04:36;20.50;99.90
76967;DHT22;65904;52.278;20.972;2023-10-13T08:07:22;20.80;99.90
76967;DHT22;65904;52.278;20.972;2023-10-13T08:10:13;20.90;99.90
76967;DHT22;65904;52.278;20.972;2023-10-13T08:13:01;21.10;99.90
76967;DHT22;65904;52.278;20.972;2023-10-13T08:15:48;21.20;99.90
76967;DHT22;65904;52.278;20.972;2023-10-13T08:18:34;21.30;99.90
76967;DHT22;65904;52.278;20.972;2023-10-13T08:21:21;21.40;99.90
76967;DHT22;65904;52.278;20.972;2023-10-13T08:24:08;21.40;99.90
76967;DHT22;65904;52.278;20.972;2023-10-13T08:26:55;21.50;99.70
76967;DHT22;65904;52.278;20.972;2023-10-13T08:30:00;21.50;99.60
76967;DHT22;65904;52.278;20.972;2023-10-13T08:33:05;20.20;98.80
76967;DHT22;65904;52.278;20.972;2023-10-13T08:36:01;20.50;99.90
76967;DHT22;65904;52.278;20.972;2023-10-13T08:39:11;20.80;99.90
76967;DHT22;65904;52.278;20.972;2023-10-13T08:42:29;21.10;99.90
76967;DHT22;65904;52.278;20.972;2023-10-13T08:45:37;21.20;99.90
76967;DHT22;65904;52.278;20.972;2023-10-13T08:48:45;21.30;99.30
76967;DHT22;65904;52.278;20.972;2023-10-13T08:51:34;21.40;99.90
76967;DHT22;65904;52.278;20.972;2023-10-13T08:54:30;21.50;99.90
76967;DHT22;65904;52.278;20.972;2023-10-13T08:57:24;21.60;99.90
76967;DHT22;65904;52.278;20.972;2023-10-13T09:00:17;21.60;99.90
76967;DHT22;65904;52.278;20.972;2023-10-13T09:03:18;21.60;99.90
76967;DHT22;65904;52.278;20.972;2023-10-13T09:06:24;20.80;99.90
76967;DHT22;65904;52.278;20.972;2023-10-13T09:09:11;19.60;99.90
76967;DHT22;65904;52.278;20.972;2023-10-13T09:12:13;20.30;99.90
76967;DHT22;65904;52.278;20.972;2023-10-13T09:15:01;20.80;99.90
76967;DHT22;65904;52.278;20.972;2023-10-13T09:17:50;21.20;99.90
76967;DHT22;65904;52.278;20.972;2023-10-13T09:20:59;21.50;99.90
76967;DHT22;65904;52.278;20.972;2023-10-13T09:24:09;21.60;99.90
76967;DHT22;65904;52.278;20.972;2023-10-13T09:27:06;21.80;99.90
76967;DHT22;65904;52.278;20.972;2023-10-13T09:29:57;21.90;99.90
76967;DHT22;65904;52.278;20.972;2023-10-13T09:32:59;22.00;99.90
76967;DHT22;65904;52.278;20.972;2023-10-13T09:35:47;22.00;99.90
76967;DHT22;65904;52.278;20.972;2023-10-13T09:38:35;22.10;99.90
76967;DHT22;65904;52.278;20.972;2023-10-13T09:41:27;22.20;99.90
76967;DHT22;65904;52.278;20.972;2023-10-13T09:44:17;22.20;99.90
76967;DHT22;65904;52.278;20.972;2023-10-13T09:47:10;22.20;99.90
76967;DHT22;65904;52.278;20.972;2023-10-13T09:50:02;22.30;99.90
76967;DHT22;65904;52.278;20.972;2023-10-13T09:53:00;22.30;99.90
76967;DHT22;65904;52.278;20.972;2023-10-13T09:55:48;22.30;99.90
76967;DHT22;65904;52.278;20.972;2023-10-13T09:58:38;22.40;99.90
76967;DHT22;65904;52.278;20.972;2023-10-13T10:01:32;22.50;98.60
76967;DHT22;65904;52.278;20.972;2023-10-13T10:04:19;22.60;97.60
76967;DHT22;65904;52.278;20.972;2023-10-13T10:07:08;22.60;97.30
76967;DHT22;65904;52.278;20.972;2023-10-13T10:09:56;22.60;97.20
76967;DHT22;65904;52.278;20.972;2023-10-13T10:12:48;22.60;97.20
76967;DHT22;65904;52.278;20.972;2023-10-13T10:15:36;22.70;96.70
76967;DHT22;65904;52.278;20.972;2023-10-13T10:18:31;22.70;96.40
76967;DHT22;65904;52.278;20.972;2023-10-13T10:21:16;22.70;95.80
76967;DHT22;65904;52.278;20.972;2023-10-13T10:24:14;22.80;95.40
76967;DHT22;65904;52.278;20.972;2023-10-13T10:27:08;22.80;95.40
76967;DHT22;65904;52.278;20.972;2023-10-13T10:29:59;22.70;95.50
76967;DHT22;65904;52.278;20.972;2023-10-13T10:32:54;22.70;95.40
76967;DHT22;65904;52.278;20.972;2023-10-13T10:35:45;22.70;95.30
76967;DHT22;65904;52.278;20.972;2023-10-13T10:38:31;22.70;95.10
76967;DHT22;65904;52.278;20.972;2023-10-13T10:41:26;22.80;95.00
76967;DHT22;65904;52.278;20.972;2023-10-13T10:44:23;22.80;95.10
76967;DHT22;65904;52.278;20.972;2023-10-13T10:47:18;22.80;95.10
76967;DHT22;65904;52.278;20.972;2023-10-13T10:50:25;22.70;95.10
76967;DHT22;65904;52.278;20.972;2023-10-13T10:53:20;22.70;95.20
76967;DHT22;65904;52.278;20.972;2023-10-13T10:56:08;22.70;95.20
76967;DHT22;65904;52.278;20.972;2023-10-13T10:59:06;22.70;95.20
76967;DHT22;65904;52.278;20.972;2023-10-13T11:01:54;22.70;95.20
76967;DHT22;65904;52.278;20.972;2023-10-13T11:04:44;22.70;95.00
76967;DHT22;65904;52.278;20.972;2023-10-13T11:07:45;22.80;95.00
76967;DHT22;65904;52.278;20.972;2023-10-13T11:10:34;22.80;94.90
76967;DHT22;65904;52.278;20.972;2023-10-13T11:13:23;22.80;94.70
76967;DHT22;65904;52.278;20.972;2023-10-13T11:16:20;22.80;94.60
76967;DHT22;65904;52.278;20.972;2023-10-13T11:19:08;22.80;94.30
76967;DHT22;65904;52.278;20.972;2023-10-13T11:21:56;22.90;94.20
76967;DHT22;65904;52.278;20.972;2023-10-13T11:24:44;23.00;94.10
76967;DHT22;65904;52.278;20.972;2023-10-13T11:27:30;22.90;94.00
76967;DHT22;65904;52.278;20.972;2023-10-13T11:30:34;23.00;93.40
76967;DHT22;65904;52.278;20.972;2023-10-13T11:33:27;23.00;93.00
76967;DHT22;65904;52.278;20.972;2023-10-13T11:36:13;23.10;92.60
76967;DHT22;65904;52.278;20.972;2023-10-13T11:39:03;23.40;92.90
76967;DHT22;65904;52.278;20.972;2023-10-13T11:41:54;23.50;93.00
76967;DHT22;65904;52.278;20.972;2023-10-13T11:44:40;23.70;92.90
76967;DHT22;65904;52.278;20.972;2023-10-13T11:47:28;23.80;92.80
76967;DHT22;65904;52.278;20.972;2023-10-13T11:50:29;23.80;92.70
76967;DHT22;65904;52.278;20.972;2023-10-13T11:53:19;23.90;92.40
76967;DHT22;65904;52.278;20.972;2023-10-13T11:56:05;23.90;92.70
76967;DHT22;65904;52.278;20.972;2023-10-13T11:58:54;23.10;94.30
76967;DHT22;65904;52.278;20.972;2023-10-13T12:01:46;23.20;93.60
76967;DHT22;65904;52.278;20.972;2023-10-13T12:04:50;23.30;93.70
76967;DHT22;65904;52.278;20.972;2023-10-13T12:07:39;23.60;93.90
76967;DHT22;65904;52.278;20.972;2023-10-13T12:10:32;23.60;93.60
76967;DHT22;65904;52.278;20.972;2023-10-13T12:13:20;23.00;94.60
76967;DHT22;65904;52.278;20.972;2023-10-13T12:16:07;22.80;94.50
76967;DHT22;65904;52.278;20.972;2023-10-13T12:18:54;23.20;95.30
76967;DHT22;65904;52.278;20.972;2023-10-13T12:21:40;23.10;94.30
76967;DHT22;65904;52.278;20.972;2023-10-13T12:24:28;23.10;94.90
76967;DHT22;65904;52.278;20.972;2023-10-13T12:27:24;23.10;94.60
76967;DHT22;65904;52.278;20.972;2023-10-13T12:30:20;22.80;95.60
76967;DHT22;65904;52.278;20.972;2023-10-13T12:33:21;22.50;96.30
76967;DHT22;65904;52.278;20.972;2023-10-13T12:36:11;21.90;98.40
76967;DHT22;65904;52.278;20.972;2023-10-13T12:39:14;22.10;99.60
76967;DHT22;65904;52.278;20.972;2023-10-13T12:42:18;22.60;98.80
76967;DHT22;65904;52.278;20.972;2023-10-13T12:45:21;22.80;97.70
76967;DHT22;65904;52.278;20.972;2023-10-13T12:48:26;23.00;97.20
76967;DHT22;65904;52.278;20.972;2023-10-13T12:51:30;23.20;96.70
76967;DHT22;65904;52.278;20.972;2023-10-13T12:54:36;23.00;97.10
76967;DHT22;65904;52.278;20.972;2023-10-13T12:57:24;22.70;98.30
76967;DHT22;65904;52.278;20.972;2023-10-13T13:00:12;21.90;99.90
76967;DHT22;65904;52.278;20.972;2023-10-13T13:03:09;21.00;99.90
76967;DHT22;65904;52.278;20.972;2023-10-13T13:05:59;20.70;99.90
76967;DHT22;65904;52.278;20.972;2023-10-13T13:08:51;20.60;99.90
76967;DHT22;65904;52.278;20.972;2023-10-13T13:11:38;20.40;99.90
76967;DHT22;65904;52.278;20.972;2023-10-13T13:14:25;20.30;99.90
76967;DHT22;65904;52.278;20.972;2023-10-13T13:17:14;20.40;99.90
76967;DHT22;65904;52.278;20.972;2023-10-13T13:20:00;20.40;99.90
76967;DHT22;65904;52.278;20.972;2023-10-13T13:22:57;20.40;99.90
76967;DHT22;65904;52.278;20.972;2023-10-13T13:25:47;20.40;99.90
76967;DHT22;65904;52.278;20.972;2023-10-13T13:28:34;20.30;99.90
76967;DHT22;65904;52.278;20.972;2023-10-13T13:31:22;20.10;99.90
76967;DHT22;65904;52.278;20.972;2023-10-13T13:34:11;20.00;99.90
76967;DHT22;65904;52.278;20.972;2023-10-13T13:36:57;20.00;99.90
76967;DHT22;65904;52.278;20.972;2023-10-13T13:39:47;19.90;99.90
76967;DHT22;65904;52.278;20.972;2023-10-13T13:42:33;19.80;99.90
76967;DHT22;65904;52.278;20.972;2023-10-13T13:45:22;19.70;99.90
76967;DHT22;65904;52.278;20.972;2023-10-13T13:48:12;19.70;99.90
76967;DHT22;65904;52.278;20.972;2023-10-13T13:51:03;20.10;99.90
76967;DHT22;65904;52.278;20.972;2023-10-13T13:53:51;19.90;99.90
76967;DHT22;65904;52.278;20.972;2023-10-13T13:56:39;19.70;99.90
76967;DHT22;65904;52.278;20.972;2023-10-13T13:59:25;19.70;99.90
76967;DHT22;65904;52.278;20.972;2023-10-13T14:02:19;19.60;99.90
76967;DHT22;65904;52.278;20.972;2023-10-13T14:05:05;19.90;99.90
76967;DHT22;65904;52.278;20.972;2023-10-13T14:08:00;20.70;99.90
76967;DHT22;65904;52.278;20.972;2023-10-13T14:10:46;21.30;99.90
76967;DHT22;65904;52.278;20.972;2023-10-13T14:13:56;21.60;99.90
76967;DHT22;65904;52.278;20.972;2023-10-13T14:16:43;21.80;99.90
76967;DHT22;65904;52.278;20.972;2023-10-13T14:19:30;21.90;99.90
76967;DHT22;65904;52.278;20.972;2023-10-13T14:22:16;21.90;99.90
76967;DHT22;65904;52.278;20.972;2023-10-13T14:25:11;22.00;99.90
76967;DHT22;65904;52.278;20.972;2023-10-13T14:27:59;22.00;99.90
76967;DHT22;65904;52.278;20.972;2023-10-13T14:30:47;22.10;99.90
76967;DHT22;65904;52.278;20.972;2023-10-13T14:33:33;21.90;99.90
76967;DHT22;65904;52.278;20.972;2023-10-13T14:36:22;21.90;99.90
76967;DHT22;65904;52.278;20.972;2023-10-13T14:39:08;22.00;99.90
76967;DHT22;65904;52.278;20.972;2023-10-13T14:41:55;22.20;99.90
76967;DHT22;65904;52.278;20.972;2023-10-13T14:44:40;22.30;99.90
76967;DHT22;65904;52.278;20.972;2023-10-13T14:47:29;22.30;99.90
76967;DHT22;65904;52.278;20.972;2023-10-13T14:50:15;22.40;99.90
76967;DHT22;65904;52.278;20.972;2023-10-13T14:53:04;22.40;99.90
76967;DHT22;65904;52.278;20.972;2023-10-13T14:55:50;22.40;99.90
76967;DHT22;65904;52.278;20.972;2023-10-13T14:58:40;22.50;99.90
76967;DHT22;65904;52.278;20.972;2023-10-13T15:01:26;22.50;99.90
76967;DHT22;65904;52.278;20.972;2023-10-13T15:04:14;22.60;99.90
76967;DHT22;65904;52.278;20.972;2023-10-13T15:07:01;22.50;99.90
76967;DHT22;65904;52.278;20.972;2023-10-13T15:09:47;22.50;99.90
76967;DHT22;65904;52.278;20.972;2023-10-13T15:12:33;22.40;99.90
76967;DHT22;65904;52.278;20.972;2023-10-13T15:15:20;22.10;99.90
76967;DHT22;65904;52.278;20.972;2023-10-13T15:18:06;22.20;99.90
76967;DHT22;65904;52.278;20.972;2023-10-13T15:20:54;22.40;99.90
76967;DHT22;65904;52.278;20.972;2023-10-13T15:23:41;21.90;99.90
76967;DHT22;65904;52.278;20.972;2023-10-13T15:26:28;21.10;99.90
76967;DHT22;65904;52.278;20.972;2023-10-13T15:29:15;20.50;99.90
76967;DHT22;65904;52.278;20.972;2023-10-13T15:32:02;20.80;99.90
76967;DHT22;65904;52.278;20.972;2023-10-13T15:35:11;21.00;99.90
76967;DHT22;65904;52.278;20.972;2023-10-13T15:37:59;21.20;99.90
76967;DHT22;65904;52.278;20.972;2023-10-13T15:40:46;21.30;99.90
76967;DHT22;65904;52.278;20.972;2023-10-13T15:43:39;21.30;99.90
76967;DHT22;65904;52.278;20.972;2023-10-13T15:46:34;20.70;99.90
76967;DHT22;65904;52.278;20.972;2023-10-13T15:49:20;21.00;99.90
76967;DHT22;65904;52.278;20.972;2023-10-13T15:52:06;21.30;99.90
76967;DHT22;65904;52.278;20.972;2023-10-13T15:54:55;21.50;99.90
76967;DHT22;65904;52.278;20.972;2023-10-13T15:57:41;21.70;99.90
76967;DHT22;65904;52.278;20.972;2023-10-13T16:00:28;21.90;99.90
76967;DHT22;65904;52.278;20.972;2023-10-13T16:03:14;22.00;99.90
76967;DHT22;65904;52.278;20.972;2023-10-13T16:06:02;22.00;99.90
76967;DHT22;65904;52.278;20.972;2023-10-13T16:08:54;22.10;99.90
76967;DHT22;65904;52.278;20.972;2023-10-13T16:11:42;22.20;99.90
76967;DHT22;65904;52.278;20.972;2023-10-13T16:14:28;22.20;99.90
76967;DHT22;65904;52.278;20.972;2023-10-13T16:17:20;22.30;99.90
76967;DHT22;65904;52.278;20.972;2023-10-13T16:20:08;21.80;99.90
76967;DHT22;65904;52.278;20.972;2023-10-13T16:23:01;21.60;99.90
76967;DHT22;65904;52.278;20.972;2023-10-13T16:25:47;21.90;99.90
76967;DHT22;65904;52.278;20.972;2023-10-13T16:28:36;22.10;99.90
76967;DHT22;65904;52.278;20.972;2023-10-13T16:31:24;22.20;99.90
76967;DHT22;65904;52.278;20.972;2023-10-13T16:34:12;22.30;99.90
76967;DHT22;65904;52.278;20.972;2023-10-13T16:37:01;22.40;99.90
76967;DHT22;65904;52.278;20.972;2023-10-13T16:39:50;22.50;99.90
76967;DHT22;65904;52.278;20.972;2023-10-13T16:42:38;21.80;99.90
76967;DHT22;65904;52.278;20.972;2023-10-13T16:45:26;21.70;99.90
76967;DHT22;65904;52.278;20.972;2023-10-13T16:48:16;21.90;99.90
76967;DHT22;65904;52.278;20.972;2023-10-13T16:51:02;22.10;99.90
76967;DHT22;65904;52.278;20.972;2023-10-13T16:53:50;22.20;99.90
76967;DHT22;65904;52.278;20.972;2023-10-13T16:56:36;22.20;99.90
76967;DHT22;65904;52.278;20.972;2023-10-13T16:59:23;22.30;99.90
76967;DHT22;65904;52.278;20.972;2023-10-13T17:02:12;22.30;99.90
76967;DHT22;65904;52.278;20.972;2023-10-13T17:04:59;22.40;99.90
76967;DHT22;65904;52.278;20.972;2023-10-13T17:07:45;22.40;99.90
76967;DHT22;65904;52.278;20.972;2023-10-13T17:10:32;22.40;99.90
76967;DHT22;65904;52.278;20.972;2023-10-13T17:13:18;22.40;99.90
76967;DHT22;65904;52.278;20.972;2023-10-13T17:16:10;22.40;99.90
76967;DHT22;65904;52.278;20.972;2023-10-13T17:18:59;22.40;99.90
76967;DHT22;65904;52.278;20.972;2023-10-13T17:21:45;21.00;99.90
76967;DHT22;65904;52.278;20.972;2023-10-13T17:24:33;21.30;99.90
76967;DHT22;65904;52.278;20.972;2023-10-13T17:27:19;21.50;99.90
76967;DHT22;65904;52.278;20.972;2023-10-13T17:30:08;21.70;99.90
76967;DHT22;65904;52.278;20.972;2023-10-13T17:32:54;21.90;99.90
76967;DHT22;65904;52.278;20.972;2023-10-13T17:35:42;22.00;99.90
76967;DHT22;65904;52.278;20.972;2023-10-13T17:38:28;22.00;99.90
76967;DHT22;65904;52.278;20.972;2023-10-13T17:41:15;22.10;99.90
76967;DHT22;65904;52.278;20.972;2023-10-13T17:44:01;22.20;99.90
76967;DHT22;65904;52.278;20.972;2023-10-13T17:46:48;22.20;99.90
76967;DHT22;65904;52.278;20.972;2023-10-13T17:49:35;22.20;99.90